Neuburg — 5BQJ2 — position and weather

sailwx.info

Track history (hours):
 
Tides and Currents Weather Stations Pressure Air Temp Water Temp Dewpoint Dewpoint Depression Visibility Wind Speed Wind Dir Waves Ship Positions

Neuburg

Last reported at 2017-Mar-23 06:13 UTC. Time now 2017-Mar-23 12:33 UTC.
Position N 28°58' W 013°32'.

Length 142 m; draft 6.7 m.

Type: Cargo ship. MMSI: 212740000.

Date/timePositionNaut miles runAvg speedWind from/ knotsBaromVisibWave heightAir tempDewpointWater temp
2017-Mar-23 06:13N 28°58' W 013°32'1 1.9
2017-Mar-23 05:33N 28°57' W 013°32'5513.5
2017-Mar-23 01:30N 28°35' W 014°29'1414.3
2017-Mar-23 00:33N 28°29' W 014°43'1414.2
2017-Mar-22 23:34N 28°22' W 014°57'1414.2
2017-Mar-22 22:34N 28°14' W 015°10'1414.3
2017-Mar-22 21:33N 28°07' W 015°25'1 0.5
2017-Mar-22 20:33N 28°08' W 015°25'0 0.0
2017-Mar-22 19:33N 28°08' W 015°25'0 0.0
2017-Mar-22 18:33N 28°08' W 015°25'0 0.0
2017-Mar-22 17:33N 28°08' W 015°25'0 0.0
2017-Mar-22 16:33N 28°08' W 015°25'0 0.0
2017-Mar-22 15:33N 28°08' W 015°25'0 0.0
2017-Mar-22 14:33N 28°08' W 015°25'0 0.0
2017-Mar-22 13:24N 28°08' W 015°25'0 0.0
2017-Mar-22 12:24N 28°08' W 015°25'0 0.0
2017-Mar-22 11:27N 28°08' W 015°25'0 0.0
2017-Mar-22 10:27N 28°08' W 015°25'0 0.0
2017-Mar-22 09:27N 28°08' W 015°25'0 0.0
2017-Mar-22 08:27N 28°08' W 015°25'0 0.0
2017-Mar-22 07:27N 28°08' W 015°25'0 0.0
2017-Mar-22 06:30N 28°08' W 015°25'0 0.0
2017-Mar-22 05:30N 28°08' W 015°25'0 0.0
2017-Mar-22 04:30N 28°08' W 015°25'0 0.0
2017-Mar-22 03:30N 28°08' W 015°25'0 0.0
2017-Mar-22 02:30N 28°08' W 015°25'0 0.0
2017-Mar-22 01:33N 28°08' W 015°25'0 0.0
2017-Mar-22 00:33N 28°08' W 015°25'0 0.0
2017-Mar-21 23:33N 28°08' W 015°25'0 0.0
2017-Mar-21 22:33N 28°08' W 015°25'2 1.9
2017-Mar-21 21:34N 28°08' W 015°23'1212.0
2017-Mar-21 20:33N 28°15' W 015°34'1514.8
2017-Mar-21 19:33N 28°20' W 015°49'1514.7
2017-Mar-21 18:34N 28°25' W 016°05'8 1.0
2017-Mar-21 10:32N 28°29' W 016°13'50215.7
2017-Mar-20 02:33N 33°56' W 008°48'4815.8
2017-Mar-19 23:31N 34°26' W 008°03'1615.9
2017-Mar-19 22:29N 34°37' W 007°48'1616.0
2017-Mar-19 21:29N 34°47' W 007°33'1616.4
2017-Mar-19 20:31N 34°57' W 007°18'8916.6
2017-Mar-19 15:10N 35°53' W 005°54'1116.3
2017-Mar-19 14:30N 35°57' W 005°41'1515.5
2017-Mar-19 13:33N 36°00' W 005°23'1616.3
2017-Mar-19 12:33N 36°06' W 005°04'19715.8
2017-Mar-19 00:04N 37°08' W 001°11'916.5
2017-Mar-18 23:33N 37°14' W 001°03'1616.4
2017-Mar-18 22:33N 37°25' W 000°47'1816.0
2017-Mar-18 21:26N 37°38' W 000°32'1416.0
2017-Mar-18 20:32N 37°52' W 000°28'1716.1
2017-Mar-18 19:29N 38°08' W 000°24'81 5.8
2017-Mar-18 05:33N 39°10' E 000°42'3816.8
2017-Mar-18 03:17N 39°43' E 001°06'1216.7
2017-Mar-18 02:33N 39°54' E 001°14'1716.5
2017-Mar-18 01:33N 40°08' E 001°24'1616.5
2017-Mar-18 00:33N 40°23' E 001°35'1616.2
2017-Mar-17 23:33N 40°38' E 001°43'1616.0
2017-Mar-17 22:33N 40°52' E 001°53'1616.1
2017-Mar-17 21:33N 41°06' E 002°03'1514.7
2017-Mar-17 20:33N 41°20' E 002°10'1 1.4
2017-Mar-17 19:32N 41°22' E 002°10'0 0.0
2017-Mar-17 13:21N 41°22' E 002°10'5 6.0
2017-Mar-17 12:33N 41°17' E 002°13'1413.9
2017-Mar-17 11:33N 41°24' E 002°29'1515.4
2017-Mar-17 10:33N 41°30' E 002°48'1615.6
2017-Mar-17 09:33N 41°37' E 003°07'1616.0
2017-Mar-17 08:33N 41°44' E 003°26'1616.0
2017-Mar-17 07:33N 41°51' E 003°45'1616.1
2017-Mar-17 06:33N 41°59' E 004°04'1616.0
2017-Mar-17 05:33N 42°06' E 004°23'1616.1
2017-Mar-17 04:33N 42°14' E 004°42'1616.3
2017-Mar-17 03:34N 42°21' E 005°02'1616.4
2017-Mar-17 02:34N 42°29' E 005°21'1616.3
2017-Mar-17 01:33N 42°36' E 005°41'1716.5
2017-Mar-17 00:34N 42°44' E 006°01'1616.2
2017-Mar-16 23:33N 42°51' E 006°21'1716.0
2017-Mar-16 22:28N 42°59' E 006°42'1516.0
2017-Mar-16 21:33N 43°07' E 006°59'1616.0
2017-Mar-16 20:33N 43°18' E 007°15'1616.4
2017-Mar-16 19:33N 43°29' E 007°32'1716.7
2017-Mar-16 18:33N 43°40' E 007°50'1716.9
2017-Mar-16 17:33N 43°50' E 008°08'1717.0
2017-Mar-16 16:33N 44°01' E 008°26'1716.8
2017-Mar-16 15:33N 44°12' E 008°44'1414.5
2017-Mar-16 14:33N 44°24' E 008°56'2 2.3
2017-Mar-16 13:32N 44°24' E 008°53'0 0.0
2017-Mar-16 12:32N 44°24' E 008°53'0 0.0
2017-Mar-16 11:32N 44°24' E 008°53'0 0.0
2017-Mar-16 10:32N 44°24' E 008°53'0 0.0
2017-Mar-16 09:32N 44°24' E 008°53'0 0.0
2017-Mar-16 08:32N 44°24' E 008°53'0 0.0
2017-Mar-16 07:32N 44°24' E 008°53'0 0.0
2017-Mar-16 06:32N 44°24' E 008°53'0 0.0
2017-Mar-16 05:29N 44°24' E 008°53'0 0.0
2017-Mar-16 04:32N 44°24' E 008°53'0 0.0
2017-Mar-16 03:28N 44°24' E 008°53'0 0.0
2017-Mar-16 02:28N 44°24' E 008°53'0 0.0
2017-Mar-16 01:33N 44°24' E 008°53'6 5.8
2017-Mar-16 00:34N 44°21' E 008°59'1716.8
2017-Mar-15 23:33N 44°09' E 008°42'1716.8
2017-Mar-15 22:33N 43°58' E 008°25'1616.3
2017-Mar-15 21:33N 43°47' E 008°08'1616.3
2017-Mar-15 20:33N 43°36' E 007°51'1716.9
2017-Mar-15 19:33N 43°25' E 007°33'1716.9
2017-Mar-15 18:33N 43°14' E 007°15'1717.0
2017-Mar-15 17:33N 43°04' E 006°57'1717.1
2017-Mar-15 16:33N 42°53' E 006°39'1616.3
2017-Mar-15 15:33N 42°46' E 006°19'3416.5
2017-Mar-15 13:30N 42°34' E 005°36'15616.6
2017-Mar-15 04:08N 41°23' E 002°29'1217.0
2017-Mar-15 03:27N 41°18' E 002°15'5 1.6
2017-Mar-15 00:09N 41°22' E 002°10'0 0.0
2017-Mar-14 23:20N 41°22' E 002°10'0 0.0
2017-Mar-14 22:29N 41°22' E 002°10'3 1.4
2017-Mar-14 20:30N 41°19' E 002°10'1313.7
2017-Mar-14 19:33N 41°06' E 002°05'1615.9
2017-Mar-14 18:33N 40°52' E 001°55'1716.5
2017-Mar-14 17:33N 40°38' E 001°44'1616.2
2017-Mar-14 16:33N 40°24' E 001°34'1615.7
2017-Mar-14 15:34N 40°10' E 001°25'1616.1
2017-Mar-14 14:33N 39°56' E 001°15'141 7.7
2017-Mar-13 20:19N 37°58' W 000°25'1315.3
2017-Mar-13 19:30N 37°46' W 000°27'1415.5
2017-Mar-13 18:33N 37°32' W 000°33'1615.9
2017-Mar-13 17:33N 37°21' W 000°48'  
Track history (hours):
 
Tides and Currents Weather Stations Pressure Air Temp Water Temp Dewpoint Dewpoint Depression Visibility Wind Speed Wind Dir Waves Ship Positions

Neuburg

Last reported at 2017-Mar-23 06:13 UTC. Time now 2017-Mar-23 12:33 UTC.
Position N 28°58' W 013°32'.

Length 142 m; draft 6.7 m.

Type: Cargo ship. MMSI: 212740000.

Date/timePositionNaut miles runAvg speedWind from/ knotsBaromVisibWave heightAir tempDewpointWater temp
2017-Mar-23 06:13N 28°58' W 013°32'1 1.9
2017-Mar-23 05:33N 28°57' W 013°32'5513.5
2017-Mar-23 01:30N 28°35' W 014°29'1414.3
2017-Mar-23 00:33N 28°29' W 014°43'1414.2
2017-Mar-22 23:34N 28°22' W 014°57'1414.2
2017-Mar-22 22:34N 28°14' W 015°10'1414.3
2017-Mar-22 21:33N 28°07' W 015°25'1 0.5
2017-Mar-22 20:33N 28°08' W 015°25'0 0.0
2017-Mar-22 19:33N 28°08' W 015°25'0 0.0
2017-Mar-22 18:33N 28°08' W 015°25'0 0.0
2017-Mar-22 17:33N 28°08' W 015°25'0 0.0
2017-Mar-22 16:33N 28°08' W 015°25'0 0.0
2017-Mar-22 15:33N 28°08' W 015°25'0 0.0
2017-Mar-22 14:33N 28°08' W 015°25'0 0.0
2017-Mar-22 13:24N 28°08' W 015°25'0 0.0
2017-Mar-22 12:24N 28°08' W 015°25'0 0.0
2017-Mar-22 11:27N 28°08' W 015°25'0 0.0
2017-Mar-22 10:27N 28°08' W 015°25'0 0.0
2017-Mar-22 09:27N 28°08' W 015°25'0 0.0
2017-Mar-22 08:27N 28°08' W 015°25'0 0.0
2017-Mar-22 07:27N 28°08' W 015°25'0 0.0
2017-Mar-22 06:30N 28°08' W 015°25'0 0.0
2017-Mar-22 05:30N 28°08' W 015°25'0 0.0
2017-Mar-22 04:30N 28°08' W 015°25'0 0.0
2017-Mar-22 03:30N 28°08' W 015°25'0 0.0
2017-Mar-22 02:30N 28°08' W 015°25'0 0.0
2017-Mar-22 01:33N 28°08' W 015°25'0 0.0
2017-Mar-22 00:33N 28°08' W 015°25'0 0.0
2017-Mar-21 23:33N 28°08' W 015°25'0 0.0
2017-Mar-21 22:33N 28°08' W 015°25'2 1.9
2017-Mar-21 21:34N 28°08' W 015°23'1212.0
2017-Mar-21 20:33N 28°15' W 015°34'1514.8
2017-Mar-21 19:33N 28°20' W 015°49'1514.7
2017-Mar-21 18:34N 28°25' W 016°05'8 1.0
2017-Mar-21 10:32N 28°29' W 016°13'50215.7
2017-Mar-20 02:33N 33°56' W 008°48'4815.8
2017-Mar-19 23:31N 34°26' W 008°03'1615.9
2017-Mar-19 22:29N 34°37' W 007°48'1616.0
2017-Mar-19 21:29N 34°47' W 007°33'1616.4
2017-Mar-19 20:31N 34°57' W 007°18'8916.6
2017-Mar-19 15:10N 35°53' W 005°54'1116.3
2017-Mar-19 14:30N 35°57' W 005°41'1515.5
2017-Mar-19 13:33N 36°00' W 005°23'1616.3
2017-Mar-19 12:33N 36°06' W 005°04'19715.8
2017-Mar-19 00:04N 37°08' W 001°11'916.5
2017-Mar-18 23:33N 37°14' W 001°03'1616.4
2017-Mar-18 22:33N 37°25' W 000°47'1816.0
2017-Mar-18 21:26N 37°38' W 000°32'1416.0
2017-Mar-18 20:32N 37°52' W 000°28'1716.1
2017-Mar-18 19:29N 38°08' W 000°24'81 5.8
2017-Mar-18 05:33N 39°10' E 000°42'3816.8
2017-Mar-18 03:17N 39°43' E 001°06'1216.7
2017-Mar-18 02:33N 39°54' E 001°14'1716.5
2017-Mar-18 01:33N 40°08' E 001°24'1616.5
2017-Mar-18 00:33N 40°23' E 001°35'1616.2
2017-Mar-17 23:33N 40°38' E 001°43'1616.0
2017-Mar-17 22:33N 40°52' E 001°53'1616.1
2017-Mar-17 21:33N 41°06' E 002°03'1514.7
2017-Mar-17 20:33N 41°20' E 002°10'1 1.4
2017-Mar-17 19:32N 41°22' E 002°10'0 0.0
2017-Mar-17 13:21N 41°22' E 002°10'5 6.0
2017-Mar-17 12:33N 41°17' E 002°13'1413.9
2017-Mar-17 11:33N 41°24' E 002°29'1515.4
2017-Mar-17 10:33N 41°30' E 002°48'1615.6
2017-Mar-17 09:33N 41°37' E 003°07'1616.0
2017-Mar-17 08:33N 41°44' E 003°26'1616.0
2017-Mar-17 07:33N 41°51' E 003°45'1616.1
2017-Mar-17 06:33N 41°59' E 004°04'1616.0
2017-Mar-17 05:33N 42°06' E 004°23'1616.1
2017-Mar-17 04:33N 42°14' E 004°42'1616.3
2017-Mar-17 03:34N 42°21' E 005°02'1616.4
2017-Mar-17 02:34N 42°29' E 005°21'1616.3
2017-Mar-17 01:33N 42°36' E 005°41'1716.5
2017-Mar-17 00:34N 42°44' E 006°01'1616.2
2017-Mar-16 23:33N 42°51' E 006°21'1716.0
2017-Mar-16 22:28N 42°59' E 006°42'1516.0
2017-Mar-16 21:33N 43°07' E 006°59'1616.0
2017-Mar-16 20:33N 43°18' E 007°15'1616.4
2017-Mar-16 19:33N 43°29' E 007°32'1716.7
2017-Mar-16 18:33N 43°40' E 007°50'1716.9
2017-Mar-16 17:33N 43°50' E 008°08'1717.0
2017-Mar-16 16:33N 44°01' E 008°26'1716.8
2017-Mar-16 15:33N 44°12' E 008°44'1414.5
2017-Mar-16 14:33N 44°24' E 008°56'2 2.3
2017-Mar-16 13:32N 44°24' E 008°53'0 0.0
2017-Mar-16 12:32N 44°24' E 008°53'0 0.0
2017-Mar-16 11:32N 44°24' E 008°53'0 0.0
2017-Mar-16 10:32N 44°24' E 008°53'0 0.0
2017-Mar-16 09:32N 44°24' E 008°53'0 0.0
2017-Mar-16 08:32N 44°24' E 008°53'0 0.0
2017-Mar-16 07:32N 44°24' E 008°53'0 0.0
2017-Mar-16 06:32N 44°24' E 008°53'0 0.0
2017-Mar-16 05:29N 44°24' E 008°53'0 0.0
2017-Mar-16 04:32N 44°24' E 008°53'0 0.0
2017-Mar-16 03:28N 44°24' E 008°53'0 0.0
2017-Mar-16 02:28N 44°24' E 008°53'0 0.0
2017-Mar-16 01:33N 44°24' E 008°53'6 5.8
2017-Mar-16 00:34N 44°21' E 008°59'1716.8
2017-Mar-15 23:33N 44°09' E 008°42'1716.8
2017-Mar-15 22:33N 43°58' E 008°25'1616.3
2017-Mar-15 21:33N 43°47' E 008°08'1616.3
2017-Mar-15 20:33N 43°36' E 007°51'1716.9
2017-Mar-15 19:33N 43°25' E 007°33'1716.9
2017-Mar-15 18:33N 43°14' E 007°15'1717.0
2017-Mar-15 17:33N 43°04' E 006°57'1717.1
2017-Mar-15 16:33N 42°53' E 006°39'1616.3
2017-Mar-15 15:33N 42°46' E 006°19'3416.5
2017-Mar-15 13:30N 42°34' E 005°36'15616.6
2017-Mar-15 04:08N 41°23' E 002°29'1217.0
2017-Mar-15 03:27N 41°18' E 002°15'5 1.6
2017-Mar-15 00:09N 41°22' E 002°10'0 0.0
2017-Mar-14 23:20N 41°22' E 002°10'0 0.0
2017-Mar-14 22:29N 41°22' E 002°10'3 1.4
2017-Mar-14 20:30N 41°19' E 002°10'1313.7
2017-Mar-14 19:33N 41°06' E 002°05'1615.9
2017-Mar-14 18:33N 40°52' E 001°55'1716.5
2017-Mar-14 17:33N 40°38' E 001°44'1616.2
2017-Mar-14 16:33N 40°24' E 001°34'1615.7
2017-Mar-14 15:34N 40°10' E 001°25'1616.1
2017-Mar-14 14:33N 39°56' E 001°15'141 7.7
2017-Mar-13 20:19N 37°58' W 000°25'1315.3
2017-Mar-13 19:30N 37°46' W 000°27'1415.5
2017-Mar-13 18:33N 37°32' W 000°33'1615.9
2017-Mar-13 17:33N 37°21' W 000°48'  

Dump ship's entire track history